Aérodrome :
LOGIN :

S'inscrire | Disclaimer

   EN    FR    IT 

 










Légende :    VFR   VFR Marginal   IFR   IFR Intensif   IFR Très Intensif
Visi : 
Plafond : 
>= 8 km
>= 3000ft
5 à 8 km
1000 à 3000 ft
1500m à 5 km
500 à 1000 ft
800 à 1500m
200 à 500 ft
< 800m
< 200 ft
Symboles :   Orages  Brouillard  Fortes neiges  Fortes précipitations  Vent > 20 kt
SIGMETs :   Divers  Orages  Givrage  Turbulence  Onde Orograph.  Cendres Volcan.







- Altitude de l'aérodrome : 219 ft
- Code IATA : DNR
- Voir les cartes d'approche


LFRD - Dinard

DERNIER METAR :
  • 172230Z AUTO 03004KT 9999 FEW035/// SCT064/// OVC076/// ///TCU 14/12 Q1021 TEMPO BKN040

METARs EXPIRÉS :
  • 172200Z AUTO 04004KT 9999 BKN049 OVC062 14/12 Q1021 NOSIG
  • 172130Z AUTO 06005KT CAVOK 14/11 Q1021 NOSIG
  • 172100Z AUTO 05005KT 020V080 CAVOK 14/11 Q1021 NOSIG
  • 172030Z AUTO 05007KT CAVOK 15/11 Q1020 NOSIG
  • 172000Z AUTO 05006KT CAVOK 15/12 Q1020 NOSIG

TAF AMD TAF LFRD
Valide du 17 à 21h jusqu'au 18 à 18h UTC


172125Z 1721/1818 02010KT CAVOK
TEMPO 1721/1803 -SHRA BKN040
ATIS : +33 2 99 16 81 50
Pas de NOTAMs connus pour ce terrain.



MET'MAP, la Météo Aéronautique d'un coup d'oeil ! - Copyright ORBIFLY Décembre 2007 - Disclaimer

ORBIFLY MET'MAP TEAM :

Programmation & Développement : Alexandra Zaïnal
Conception & Développement : Baudouin d'Aumeries
Co-Programmation & Développement : Marc-Olivier Méhu
Soutien technique & logistique : Manuel Goepfert

Contact : metmap@orbifly.com




SOURCES & CREDITS :

   NOAA